Time;durP1;ratioP1;P1;durP2;ratioP2;P2;SDS_P1;SDS_P2;PMS_P1;PMS_P2;Temp;Humidity;BMP_temperature;BMP_pressure;BME280_temperature;BME280_humidity;BME280_pressure;Samples;Min_cycle;Max_cycle;Signal;HPM_P1;HPM_P2
2023/10/19 00:00:48;;;;;;;17.52;3.90;;;;;;;;;;4995548;28;20124;-65
2023/10/19 00:03:15;;;;;;;14.95;3.80;;;;;;;;;;4996649;28;20597;-66
2023/10/19 00:05:41;;;;;;;13.63;3.60;;;;;;;;;;4984019;28;20132;-66
2023/10/19 00:10:42;;;;;;;13.63;3.95;;;;;;;;;;4994378;28;20096;-66
2023/10/19 00:13:09;;;;;;;14.63;3.83;;;;;;;;;;4965328;28;20883;-66
2023/10/19 00:15:40;;;;;;;10.82;2.83;;;;;;;;;;4981245;28;20169;-66
2023/10/19 00:23:18;;;;;;;13.43;3.20;;;;;;;;;;4981077;28;20049;-65
2023/10/19 00:25:50;;;;;;;10.95;3.22;;;;;;;;;;4971958;28;20546;-66
2023/10/19 00:28:17;;;;;;;11.77;3.15;;;;;;;;;;4968583;28;20578;-65
2023/10/19 00:30:45;;;;;;;10.73;2.95;;;;;;;;;;4986027;28;20492;-65
2023/10/19 00:33:21;;;;;;;9.07;2.55;;;;;;;;;;4982917;28;20025;-65
2023/10/19 00:35:58;;;;;;;9.80;2.67;;;;;;;;;;4983402;28;20583;-67
2023/10/19 00:41:07;;;;;;;10.07;2.50;;;;;;;;;;4984019;28;20675;-67
2023/10/19 00:43:42;;;;;;;15.15;3.10;;;;;;;;;;4981515;28;20370;-67
2023/10/19 00:46:14;;;;;;;10.85;2.80;;;;;;;;;;4982920;28;20119;-65
2023/10/19 00:48:41;;;;;;;12.20;3.03;;;;;;;;;;4992214;28;20032;-65
2023/10/19 00:51:09;;;;;;;10.38;2.60;;;;;;;;;;5024519;28;20036;-65
2023/10/19 00:53:37;;;;;;;9.18;2.67;;;;;;;;;;5023230;28;20847;-65
2023/10/19 00:56:05;;;;;;;10.57;2.80;;;;;;;;;;5028044;28;20645;-65
2023/10/19 00:58:35;;;;;;;13.05;2.67;;;;;;;;;;5005848;28;20402;-65
2023/10/19 01:01:05;;;;;;;9.05;2.35;;;;;;;;;;5005822;28;20040;-67
2023/10/19 01:03:36;;;;;;;10.70;2.40;;;;;;;;;;5003990;28;20049;-65
2023/10/19 01:06:09;;;;;;;7.57;2.10;;;;;;;;;;5006185;28;20036;-65
2023/10/19 01:08:41;;;;;;;7.63;2.03;;;;;;;;;;5024127;28;20029;-65
2023/10/19 01:11:10;;;;;;;9.68;2.20;;;;;;;;;;5021300;28;20025;-65
2023/10/19 01:13:37;;;;;;;8.65;2.00;;;;;;;;;;5006154;28;20103;-65
2023/10/19 01:16:04;;;;;;;7.88;1.60;;;;;;;;;;5012405;28;20029;-66
2023/10/19 01:18:34;;;;;;;7.93;1.67;;;;;;;;;;5021061;28;20037;-65
2023/10/19 01:21:07;;;;;;;7.50;1.70;;;;;;;;;;5024863;28;20021;-65
2023/10/19 01:23:35;;;;;;;7.43;1.67;;;;;;;;;;5020239;28;20046;-65
2023/10/19 01:26:10;;;;;;;8.82;2.22;;;;;;;;;;5024179;28;20271;-66
2023/10/19 01:31:07;;;;;;;9.20;2.40;;;;;;;;;;5023865;28;20506;-65
2023/10/19 01:33:36;;;;;;;9.20;1.70;;;;;;;;;;5019889;28;20447;-66
2023/10/19 01:36:14;;;;;;;11.05;2.20;;;;;;;;;;5028012;28;20566;-66
2023/10/19 01:38:41;;;;;;;10.70;2.15;;;;;;;;;;5019888;28;20044;-66
2023/10/19 01:41:13;;;;;;;10.68;2.97;;;;;;;;;;5003743;28;20025;-66
2023/10/19 01:43:40;;;;;;;9.07;2.20;;;;;;;;;;5018057;28;20056;-66
2023/10/19 01:46:12;;;;;;;10.82;2.15;;;;;;;;;;5024544;28;20497;-65
2023/10/19 01:48:43;;;;;;;11.15;2.10;;;;;;;;;;5017522;28;20037;-65
2023/10/19 01:51:10;;;;;;;6.85;1.50;;;;;;;;;;5018001;28;20257;-65
2023/10/19 01:53:44;;;;;;;12.45;2.03;;;;;;;;;;5020967;28;20147;-66
2023/10/19 01:56:11;;;;;;;9.38;2.10;;;;;;;;;;5016388;28;20033;-65
2023/10/19 01:58:39;;;;;;;8.00;1.85;;;;;;;;;;5005550;28;20864;-66
2023/10/19 02:01:15;;;;;;;11.50;2.05;;;;;;;;;;5021374;28;20044;-66
2023/10/19 02:03:42;;;;;;;7.10;1.60;;;;;;;;;;5022146;28;20111;-65
2023/10/19 02:06:28;;;;;;;8.93;1.88;;;;;;;;;;5018159;28;20490;-66
2023/10/19 02:09:21;;;;;;;7.00;1.60;;;;;;;;;;5023328;28;20427;-65
2023/10/19 02:11:57;;;;;;;8.52;1.55;;;;;;;;;;5004541;28;20048;-65
2023/10/19 02:14:31;;;;;;;9.48;1.90;;;;;;;;;;5000259;28;20462;-66
2023/10/19 02:16:59;;;;;;;11.35;2.15;;;;;;;;;;5019424;28;20033;-66
2023/10/19 02:19:26;;;;;;;7.78;1.52;;;;;;;;;;5005430;28;20197;-65
2023/10/19 02:21:53;;;;;;;8.50;1.45;;;;;;;;;;5024040;28;20041;-66
2023/10/19 02:24:20;;;;;;;9.98;1.77;;;;;;;;;;5003712;28;20125;-65
2023/10/19 02:26:46;;;;;;;8.18;1.45;;;;;;;;;;5010957;28;20025;-66
2023/10/19 02:29:13;;;;;;;9.95;1.60;;;;;;;;;;5018759;28;20146;-67
2023/10/19 02:31:44;;;;;;;8.18;1.60;;;;;;;;;;5019787;28;20351;-67
2023/10/19 02:34:11;;;;;;;8.55;1.80;;;;;;;;;;5020729;28;20040;-67
2023/10/19 02:36:40;;;;;;;7.72;1.73;;;;;;;;;;5008033;28;20040;-66
2023/10/19 02:39:08;;;;;;;9.32;1.92;;;;;;;;;;5021868;28;20033;-66
2023/10/19 02:41:37;;;;;;;8.15;1.77;;;;;;;;;;5023891;28;20053;-66
2023/10/19 02:46:43;;;;;;;8.38;1.83;;;;;;;;;;5024225;28;20467;-65
2023/10/19 02:49:11;;;;;;;9.20;1.70;;;;;;;;;;5020261;28;20025;-65
2023/10/19 02:51:38;;;;;;;7.75;1.70;;;;;;;;;;5009128;28;20037;-65
2023/10/19 02:54:06;;;;;;;9.52;2.20;;;;;;;;;;5020032;28;20115;-65
2023/10/19 02:56:33;;;;;;;8.32;1.73;;;;;;;;;;5021347;28;20028;-66
2023/10/19 02:59:02;;;;;;;6.80;1.27;;;;;;;;;;5023304;28;20092;-65
2023/10/19 03:01:34;;;;;;;8.57;1.90;;;;;;;;;;5019939;28;24005;-65
2023/10/19 03:04:01;;;;;;;8.63;1.30;;;;;;;;;;5021723;28;20021;-65
2023/10/19 03:06:33;;;;;;;7.85;1.70;;;;;;;;;;5018073;28;20689;-65
2023/10/19 03:09:22;;;;;;;8.05;1.70;;;;;;;;;;5021593;28;20033;-66
2023/10/19 03:11:52;;;;;;;7.40;1.60;;;;;;;;;;5022553;28;20694;-65
2023/10/19 03:14:18;;;;;;;9.50;1.77;;;;;;;;;;4998691;28;20033;-66
2023/10/19 03:16:45;;;;;;;8.63;1.50;;;;;;;;;;5023149;28;20041;-66
2023/10/19 03:19:14;;;;;;;13.15;2.28;;;;;;;;;;5017669;28;20579;-66
2023/10/19 03:21:49;;;;;;;8.05;1.92;;;;;;;;;;5005439;28;20402;-66
2023/10/19 03:27:00;;;;;;;9.95;2.08;;;;;;;;;;5019591;28;20114;-65
2023/10/19 03:29:31;;;;;;;8.82;1.83;;;;;;;;;;5016465;28;20032;-66
2023/10/19 03:31:59;;;;;;;11.50;2.33;;;;;;;;;;5005270;28;20025;-66
2023/10/19 03:34:25;;;;;;;11.50;2.08;;;;;;;;;;5002253;28;20485;-66
2023/10/19 03:36:51;;;;;;;9.07;2.03;;;;;;;;;;5015366;28;20417;-66
2023/10/19 03:39:17;;;;;;;10.80;2.10;;;;;;;;;;5006775;28;20028;-66
2023/10/19 03:41:44;;;;;;;12.55;2.40;;;;;;;;;;5013274;28;20446;-65
2023/10/19 03:44:57;;;;;;;9.50;2.08;;;;;;;;;;5020112;28;20120;-65
2023/10/19 03:47:25;;;;;;;11.18;2.10;;;;;;;;;;5018902;28;20086;-65
2023/10/19 03:49:52;;;;;;;7.78;1.83;;;;;;;;;;5021629;28;20029;-65
2023/10/19 03:54:44;;;;;;;10.85;2.05;;;;;;;;;;5025316;28;20048;-65
2023/10/19 03:57:11;;;;;;;11.23;2.35;;;;;;;;;;5022280;28;20407;-65
2023/10/19 03:59:38;;;;;;;8.65;1.90;;;;;;;;;;5025596;28;20037;-65
2023/10/19 04:02:13;;;;;;;10.38;2.15;;;;;;;;;;5025989;28;20025;-65
2023/10/19 04:04:46;;;;;;;10.00;2.33;;;;;;;;;;5024099;28;20128;-65
2023/10/19 04:07:22;;;;;;;10.82;2.25;;;;;;;;;;5025790;28;20477;-65
2023/10/19 04:12:35;;;;;;;11.13;2.40;;;;;;;;;;5022332;28;20458;-65
2023/10/19 04:15:11;;;;;;;10.35;2.30;;;;;;;;;;5024993;28;20486;-65
2023/10/19 04:17:39;;;;;;;;;;;;;;;;;;5026632;28;20025;-65
2023/10/19 04:20:29;;;;;;;8.50;2.20;;;;;;;;;;5004976;28;19920;-65
2023/10/19 04:22:56;;;;;;;11.35;2.08;;;;;;;;;;5024499;28;20075;-66
2023/10/19 04:25:25;;;;;;;10.50;2.13;;;;;;;;;;5005600;28;20040;-65
2023/10/19 04:27:52;;;;;;;12.52;2.65;;;;;;;;;;5021412;28;20025;-65
2023/10/19 04:30:22;;;;;;;13.00;2.50;;;;;;;;;;5020271;28;20406;-65
2023/10/19 04:32:49;;;;;;;12.98;2.53;;;;;;;;;;5025001;28;20497;-68
2023/10/19 04:35:22;;;;;;;11.43;2.63;;;;;;;;;;5002630;28;20044;-66
2023/10/19 04:37:52;;;;;;;14.63;2.75;;;;;;;;;;5032559;28;20442;-66
2023/10/19 04:40:22;;;;;;;12.93;2.78;;;;;;;;;;5020698;28;20820;-66
2023/10/19 04:42:49;;;;;;;12.30;2.75;;;;;;;;;;5023682;28;20029;-66
2023/10/19 04:45:15;;;;;;;13.30;2.60;;;;;;;;;;5019851;28;20044;-66
2023/10/19 04:47:41;;;;;;;10.80;2.88;;;;;;;;;;5010216;28;20108;-66
2023/10/19 04:50:10;;;;;;;12.38;3.00;;;;;;;;;;5022224;28;20044;-65
2023/10/19 04:52:36;;;;;;;13.32;2.78;;;;;;;;;;5025609;28;20126;-66
2023/10/19 04:55:03;;;;;;;13.48;2.80;;;;;;;;;;5007575;28;20036;-66
2023/10/19 04:57:30;;;;;;;10.75;2.38;;;;;;;;;;5022480;28;21119;-65
2023/10/19 04:59:56;;;;;;;17.15;2.92;;;;;;;;;;5025164;28;20556;-65
2023/10/19 05:02:22;;;;;;;12.50;2.58;;;;;;;;;;5027161;28;20479;-65
2023/10/19 05:04:49;;;;;;;10.52;2.28;;;;;;;;;;5027976;28;20039;-65
2023/10/19 05:07:18;;;;;;;13.80;3.05;;;;;;;;;;5008731;28;20056;-66
2023/10/19 05:09:45;;;;;;;14.55;2.80;;;;;;;;;;5026696;28;20037;-66
2023/10/19 05:12:11;;;;;;;11.88;2.50;;;;;;;;;;5024571;28;20033;-66
2023/10/19 05:14:38;;;;;;;14.48;2.47;;;;;;;;;;5023328;28;20521;-67
2023/10/19 05:17:04;;;;;;;14.05;2.72;;;;;;;;;;5022384;28;20040;-66
2023/10/19 05:19:31;;;;;;;13.70;2.63;;;;;;;;;;5019809;28;20275;-66
2023/10/19 05:21:57;;;;;;;12.63;2.60;;;;;;;;;;5023053;28;20479;-66
2023/10/19 05:24:24;;;;;;;12.63;2.85;;;;;;;;;;5004867;28;20415;-68
2023/10/19 05:26:50;;;;;;;11.10;2.70;;;;;;;;;;5025506;28;20586;-66
2023/10/19 05:29:16;;;;;;;15.35;2.80;;;;;;;;;;5020057;28;20041;-66
2023/10/19 05:31:42;;;;;;;13.43;3.15;;;;;;;;;;5022934;28;20498;-66
2023/10/19 05:34:08;;;;;;;15.30;3.30;;;;;;;;;;5002039;28;20527;-66
2023/10/19 05:36:35;;;;;;;15.30;3.03;;;;;;;;;;5005984;28;20493;-66
2023/10/19 05:39:03;;;;;;;17.58;3.22;;;;;;;;;;5022383;28;20124;-66
2023/10/19 05:41:31;;;;;;;18.58;3.30;;;;;;;;;;5020097;28;20029;-66
2023/10/19 05:43:57;;;;;;;12.30;3.00;;;;;;;;;;5024545;28;20484;-65
2023/10/19 05:46:24;;;;;;;16.00;2.92;;;;;;;;;;5023513;28;20025;-66
2023/10/19 05:48:51;;;;;;;12.60;2.63;;;;;;;;;;5005702;28;20016;-66
2023/10/19 05:51:17;;;;;;;15.05;2.63;;;;;;;;;;5019327;28;20445;-66
2023/10/19 05:53:44;;;;;;;13.82;2.45;;;;;;;;;;5022944;28;20046;-66
2023/10/19 05:56:11;;;;;;;14.65;2.67;;;;;;;;;;5002946;28;20107;-66
2023/10/19 05:58:37;;;;;;;11.88;2.60;;;;;;;;;;5024150;28;20025;-66
2023/10/19 06:01:03;;;;;;;10.35;2.25;;;;;;;;;;5023247;28;20349;-66
2023/10/19 06:03:29;;;;;;;12.50;2.58;;;;;;;;;;5001259;28;21119;-66
2023/10/19 06:05:56;;;;;;;11.57;3.30;;;;;;;;;;5019931;28;20409;-66
2023/10/19 06:08:23;;;;;;;16.75;3.53;;;;;;;;;;5017859;28;20438;-66
2023/10/19 06:10:53;;;;;;;17.45;3.58;;;;;;;;;;5023432;28;20085;-65
2023/10/19 06:13:19;;;;;;;14.27;3.55;;;;;;;;;;5022389;28;20028;-65
2023/10/19 06:15:45;;;;;;;18.77;3.63;;;;;;;;;;5021774;28;20033;-65
2023/10/19 06:18:13;;;;;;;20.13;3.60;;;;;;;;;;5019119;28;20064;-65
2023/10/19 06:20:44;;;;;;;16.83;3.50;;;;;;;;;;5018931;28;20017;-65
2023/10/19 06:23:11;;;;;;;17.17;3.65;;;;;;;;;;5015974;28;20048;-68
2023/10/19 06:25:38;;;;;;;13.25;3.50;;;;;;;;;;5019490;28;20025;-66
2023/10/19 06:28:05;;;;;;;15.02;3.53;;;;;;;;;;5022999;28;20427;-65
2023/10/19 06:30:31;;;;;;;13.85;3.05;;;;;;;;;;4998800;28;20029;-67
2023/10/19 06:33:02;;;;;;;15.25;3.25;;;;;;;;;;5005248;28;20040;-65
2023/10/19 06:35:31;;;;;;;11.27;2.67;;;;;;;;;;5018762;28;20471;-65
2023/10/19 06:37:58;;;;;;;16.23;3.22;;;;;;;;;;5022342;28;20036;-66
2023/10/19 06:40:26;;;;;;;13.35;2.80;;;;;;;;;;5017779;28;20442;-66
2023/10/19 06:42:53;;;;;;;13.13;2.88;;;;;;;;;;5020781;28;20033;-65
2023/10/19 06:45:19;;;;;;;12.80;2.63;;;;;;;;;;5019485;28;20397;-65
2023/10/19 06:47:46;;;;;;;12.88;2.95;;;;;;;;;;5021271;28;20317;-65
2023/10/19 06:50:15;;;;;;;15.73;3.17;;;;;;;;;;5018553;28;20203;-66
2023/10/19 06:52:42;;;;;;;15.32;2.90;;;;;;;;;;5022436;28;20118;-65
2023/10/19 06:55:14;;;;;;;13.50;2.97;;;;;;;;;;5005891;28;20433;-66
2023/10/19 06:57:43;;;;;;;12.82;2.72;;;;;;;;;;5004426;28;20033;-66
2023/10/19 07:00:14;;;;;;;13.45;2.58;;;;;;;;;;5021223;28;20035;-66
2023/10/19 07:02:41;;;;;;;13.32;2.63;;;;;;;;;;5023604;28;20392;-68
2023/10/19 07:05:11;;;;;;;12.60;2.60;;;;;;;;;;5025158;28;20052;-67
2023/10/19 07:07:41;;;;;;;13.10;2.60;;;;;;;;;;5012437;28;20029;-66
2023/10/19 07:10:09;;;;;;;14.73;2.78;;;;;;;;;;5008384;28;20547;-67
2023/10/19 07:12:36;;;;;;;11.27;2.55;;;;;;;;;;5028912;28;20453;-66
2023/10/19 07:15:03;;;;;;;12.52;2.35;;;;;;;;;;5028273;28;20032;-66
2023/10/19 07:17:29;;;;;;;11.05;2.60;;;;;;;;;;5022634;28;20045;-66
2023/10/19 07:19:56;;;;;;;13.35;2.60;;;;;;;;;;5027701;28;20033;-66
2023/10/19 07:22:22;;;;;;;10.52;2.17;;;;;;;;;;5022561;28;20468;-66
2023/10/19 07:24:49;;;;;;;13.25;2.72;;;;;;;;;;5020371;28;20099;-66
2023/10/19 07:27:18;;;;;;;11.25;2.40;;;;;;;;;;5003523;28;20037;-66
2023/10/19 07:29:50;;;;;;;11.30;2.10;;;;;;;;;;5007105;28;20102;-67
2023/10/19 07:32:16;;;;;;;13.98;2.13;;;;;;;;;;5002162;28;20025;-66
2023/10/19 07:34:46;;;;;;;14.57;2.50;;;;;;;;;;5007848;28;20594;-68
2023/10/19 07:37:15;;;;;;;11.90;2.70;;;;;;;;;;5004801;28;20463;-65
2023/10/19 07:39:52;;;;;;;15.52;3.58;;;;;;;;;;5007338;28;20025;-66
2023/10/19 07:42:18;;;;;;;13.40;3.40;;;;;;;;;;5000317;28;20602;-67
2023/10/19 07:44:44;;;;;;;13.10;3.72;;;;;;;;;;5006354;28;20352;-65
2023/10/19 07:47:12;;;;;;;14.43;3.92;;;;;;;;;;5001176;28;20562;-66
2023/10/19 07:49:39;;;;;;;13.27;3.60;;;;;;;;;;5004406;28;20021;-67
2023/10/19 07:52:08;;;;;;;12.02;3.60;;;;;;;;;;5006288;28;20546;-67
2023/10/19 07:54:35;;;;;;;11.40;3.13;;;;;;;;;;5005468;28;20041;-66
2023/10/19 07:57:08;;;;;;;15.65;3.20;;;;;;;;;;5006603;28;20515;-65
2023/10/19 07:59:34;;;;;;;13.68;3.28;;;;;;;;;;5003116;28;20059;-65
2023/10/19 08:02:04;;;;;;;13.80;3.28;;;;;;;;;;5006949;28;20529;-65
2023/10/19 08:04:30;;;;;;;13.52;3.13;;;;;;;;;;5003600;28;20555;-65
2023/10/19 08:06:57;;;;;;;14.23;3.40;;;;;;;;;;5002781;28;20555;-65
2023/10/19 08:09:23;;;;;;;13.13;3.03;;;;;;;;;;5001652;28;20032;-65
2023/10/19 08:11:55;;;;;;;10.50;2.80;;;;;;;;;;5004321;28;20041;-65
2023/10/19 08:14:22;;;;;;;10.68;2.85;;;;;;;;;;5000807;28;20032;-65
2023/10/19 08:16:48;;;;;;;12.10;3.03;;;;;;;;;;5001869;28;20179;-66
2023/10/19 08:19:15;;;;;;;14.23;2.78;;;;;;;;;;5000360;28;20025;-66
2023/10/19 08:21:41;;;;;;;13.27;3.30;;;;;;;;;;4999867;28;20692;-66
2023/10/19 08:24:13;;;;;;;13.50;3.38;;;;;;;;;;5015687;28;20033;-66
2023/10/19 08:26:42;;;;;;;12.77;3.08;;;;;;;;;;5004714;28;20258;-67
2023/10/19 08:29:15;;;;;;;12.82;2.90;;;;;;;;;;5023989;28;20047;-66
2023/10/19 08:31:41;;;;;;;12.20;3.05;;;;;;;;;;5008405;28;20254;-67
2023/10/19 08:34:11;;;;;;;14.05;3.42;;;;;;;;;;5025281;28;20067;-67
2023/10/19 08:36:42;;;;;;;12.93;3.58;;;;;;;;;;5020179;28;20032;-67
2023/10/19 08:39:09;;;;;;;11.57;2.90;;;;;;;;;;5023643;28;20052;-67
2023/10/19 08:41:37;;;;;;;10.38;2.90;;;;;;;;;;5023412;28;20582;-66
2023/10/19 08:44:04;;;;;;;12.52;2.72;;;;;;;;;;5024020;28;20351;-66
2023/10/19 08:46:31;;;;;;;8.90;2.25;;;;;;;;;;5021359;28;20371;-67
2023/10/19 08:48:57;;;;;;;11.73;2.50;;;;;;;;;;5026108;28;20557;-66
2023/10/19 08:51:25;;;;;;;10.70;2.03;;;;;;;;;;5020818;28;20118;-67
2023/10/19 08:53:53;;;;;;;12.27;2.33;;;;;;;;;;5023966;28;20446;-65
2023/10/19 08:56:23;;;;;;;16.27;2.28;;;;;;;;;;5018712;28;20037;-67
2023/10/19 08:58:51;;;;;;;9.32;1.90;;;;;;;;;;5023395;28;20103;-66
2023/10/19 09:01:19;;;;;;;10.10;2.13;;;;;;;;;;5022459;28;20410;-66
2023/10/19 09:03:46;;;;;;;11.57;2.30;;;;;;;;;;5008519;28;20034;-66
2023/10/19 09:06:14;;;;;;;11.13;2.25;;;;;;;;;;5023295;28;20029;-68
2023/10/19 09:08:41;;;;;;;10.63;2.50;;;;;;;;;;5022665;28;20460;-66
2023/10/19 09:11:14;;;;;;;10.60;1.80;;;;;;;;;;5022053;28;20093;-67
2023/10/19 09:13:48;;;;;;;10.20;1.95;;;;;;;;;;5005558;28;20033;-67
2023/10/19 09:16:15;;;;;;;12.30;1.88;;;;;;;;;;5024262;28;20035;-66
2023/10/19 09:18:42;;;;;;;11.13;1.88;;;;;;;;;;5007027;28;20029;-67
2023/10/19 09:21:11;;;;;;;9.40;1.90;;;;;;;;;;5025838;28;20131;-67
2023/10/19 09:23:38;;;;;;;11.63;2.22;;;;;;;;;;5025247;28;20045;-66
2023/10/19 09:26:05;;;;;;;7.18;1.52;;;;;;;;;;5025842;28;20032;-68
2023/10/19 09:28:38;;;;;;;11.82;2.28;;;;;;;;;;5020775;28;20119;-66
2023/10/19 09:31:05;;;;;;;9.43;2.30;;;;;;;;;;5007067;28;20025;-66
2023/10/19 09:33:34;;;;;;;10.93;1.90;;;;;;;;;;5018847;28;20026;-67
2023/10/19 09:36:01;;;;;;;13.07;2.05;;;;;;;;;;5022321;28;20227;-67
2023/10/19 09:38:27;;;;;;;9.90;2.30;;;;;;;;;;5021040;28;20061;-66
2023/10/19 09:40:54;;;;;;;9.20;2.17;;;;;;;;;;5023282;28;20024;-66
2023/10/19 09:43:43;;;;;;;11.02;2.10;;;;;;;;;;5022496;28;20507;-67
2023/10/19 09:46:11;;;;;;;15.10;2.20;;;;;;;;;;5024273;28;20028;-67
2023/10/19 09:48:42;;;;;;;9.02;1.85;;;;;;;;;;5005499;28;20480;-66
2023/10/19 09:51:09;;;;;;;10.40;1.83;;;;;;;;;;5022830;28;20044;-67
2023/10/19 09:53:35;;;;;;;11.02;1.92;;;;;;;;;;5023621;28;20122;-66
2023/10/19 09:56:04;;;;;;;8.43;1.38;;;;;;;;;;5024781;28;20029;-67
2023/10/19 09:58:34;;;;;;;8.20;2.03;;;;;;;;;;5020644;28;20253;-66
2023/10/19 10:01:11;;;;;;;7.95;1.60;;;;;;;;;;5004015;28;20144;-66
2023/10/19 10:03:51;;;;;;;6.45;1.13;;;;;;;;;;5006502;28;20151;-66
2023/10/19 10:06:30;;;;;;;8.05;1.67;;;;;;;;;;5017433;28;20033;-66
2023/10/19 10:08:59;;;;;;;6.45;1.40;;;;;;;;;;5024200;28;20696;-66
2023/10/19 10:11:26;;;;;;;6.57;1.20;;;;;;;;;;5020424;28;20271;-67
2023/10/19 10:13:53;;;;;;;7.30;1.52;;;;;;;;;;5004613;28;20037;-66
2023/10/19 10:16:26;;;;;;;12.30;1.88;;;;;;;;;;5019409;28;20033;-67
2023/10/19 10:18:59;;;;;;;9.27;1.65;;;;;;;;;;5023493;28;20058;-66
2023/10/19 10:21:25;;;;;;;11.32;1.85;;;;;;;;;;5017473;28;20060;-67
2023/10/19 10:23:55;;;;;;;10.15;1.80;;;;;;;;;;5004339;28;20561;-67
2023/10/19 10:26:25;;;;;;;8.88;1.63;;;;;;;;;;5020661;28;20037;-67
2023/10/19 10:29:14;;;;;;;9.38;1.50;;;;;;;;;;5021447;28;20029;-67
2023/10/19 10:31:44;;;;;;;7.82;1.30;;;;;;;;;;5016647;28;20241;-66
2023/10/19 10:34:11;;;;;;;6.97;1.20;;;;;;;;;;5017992;28;20029;-68
2023/10/19 10:36:56;;;;;;;8.20;1.60;;;;;;;;;;5023418;28;20024;-66
2023/10/19 10:39:24;;;;;;;7.80;1.45;;;;;;;;;;5017249;28;20037;-67
2023/10/19 10:41:55;;;;;;;10.73;1.50;;;;;;;;;;5023595;28;20708;-67
2023/10/19 10:44:35;;;;;;;8.77;1.33;;;;;;;;;;5019749;28;20028;-67
2023/10/19 10:47:02;;;;;;;9.77;1.40;;;;;;;;;;5022955;28;20455;-67
2023/10/19 10:49:28;;;;;;;9.25;1.42;;;;;;;;;;5018769;28;20036;-67
2023/10/19 10:51:56;;;;;;;9.77;1.50;;;;;;;;;;5009227;28;20403;-66
2023/10/19 10:54:22;;;;;;;7.60;1.27;;;;;;;;;;4999776;28;20144;-67
2023/10/19 10:56:50;;;;;;;9.25;1.42;;;;;;;;;;5017944;28;20033;-67
2023/10/19 10:59:17;;;;;;;8.85;1.30;;;;;;;;;;5018731;28;20120;-67
2023/10/19 11:01:44;;;;;;;8.75;1.45;;;;;;;;;;5007497;28;20044;-66
2023/10/19 11:04:11;;;;;;;8.55;1.38;;;;;;;;;;5000057;28;20025;-66
2023/10/19 11:06:48;;;;;;;9.30;1.60;;;;;;;;;;5025226;28;20028;-67
2023/10/19 11:09:18;;;;;;;7.22;1.55;;;;;;;;;;5021940;28;20062;-67
2023/10/19 11:11:45;;;;;;;9.18;1.70;;;;;;;;;;5021221;28;20035;-66
2023/10/19 11:14:11;;;;;;;8.15;1.50;;;;;;;;;;5018251;28;20538;-67
2023/10/19 11:16:39;;;;;;;8.18;1.60;;;;;;;;;;5023462;28;20120;-67
2023/10/19 11:19:05;;;;;;;10.93;1.75;;;;;;;;;;5023517;28;20033;-67
2023/10/19 11:21:31;;;;;;;8.32;1.60;;;;;;;;;;5016758;28;20090;-68
2023/10/19 11:23:58;;;;;;;10.30;1.98;;;;;;;;;;5024485;28;20060;-68
2023/10/19 11:26:24;;;;;;;9.13;1.40;;;;;;;;;;5018606;28;20032;-68
2023/10/19 11:28:58;;;;;;;8.70;1.65;;;;;;;;;;5024256;28;20230;-67
2023/10/19 11:31:24;;;;;;;10.15;1.55;;;;;;;;;;5018634;28;20037;-66
2023/10/19 11:33:51;;;;;;;8.68;1.90;;;;;;;;;;5024573;28;20036;-67
2023/10/19 11:36:18;;;;;;;12.48;1.95;;;;;;;;;;5015603;28;20032;-66
2023/10/19 11:38:45;;;;;;;9.45;1.80;;;;;;;;;;5021092;28;20033;-68
2023/10/19 11:41:13;;;;;;;9.32;2.00;;;;;;;;;;5021088;28;20067;-67
2023/10/19 11:43:40;;;;;;;10.48;2.03;;;;;;;;;;5007784;28;20577;-67
2023/10/19 11:46:06;;;;;;;9.50;1.92;;;;;;;;;;5021112;28;20510;-67
2023/10/19 11:48:33;;;;;;;12.75;2.08;;;;;;;;;;5004127;28;20170;-67
2023/10/19 11:51:03;;;;;;;9.63;2.53;;;;;;;;;;5023026;28;20039;-66
2023/10/19 11:53:32;;;;;;;12.13;1.98;;;;;;;;;;5024733;28;20087;-67
2023/10/19 11:55:59;;;;;;;12.95;2.00;;;;;;;;;;5010292;28;20121;-66
2023/10/19 11:58:25;;;;;;;11.27;2.00;;;;;;;;;;5023314;28;20064;-67
2023/10/19 12:00:51;;;;;;;10.23;1.98;;;;;;;;;;5026585;28;20025;-66
2023/10/19 12:03:19;;;;;;;11.48;2.70;;;;;;;;;;5025895;28;20068;-67
2023/10/19 12:05:45;;;;;;;17.75;3.20;;;;;;;;;;5026055;28;20423;-67
2023/10/19 12:08:11;;;;;;;14.15;2.70;;;;;;;;;;5004621;28;20032;-66
2023/10/19 12:10:38;;;;;;;12.38;2.90;;;;;;;;;;5022190;28;20051;-66
2023/10/19 12:13:08;;;;;;;16.65;3.80;;;;;;;;;;5005556;28;20032;-67
2023/10/19 12:15:34;;;;;;;13.85;2.85;;;;;;;;;;5024955;28;20029;-67
2023/10/19 12:18:05;;;;;;;11.80;2.65;;;;;;;;;;5023444;28;20025;-66
2023/10/19 12:20:31;;;;;;;13.35;2.53;;;;;;;;;;5020636;28;20036;-67
2023/10/19 12:22:58;;;;;;;12.57;2.67;;;;;;;;;;5023672;28;20037;-67
2023/10/19 12:25:31;;;;;;;12.38;2.38;;;;;;;;;;5003172;28;20028;-67
2023/10/19 12:28:03;;;;;;;11.15;2.50;;;;;;;;;;5003586;28;20116;-66
2023/10/19 12:30:36;;;;;;;11.38;2.50;;;;;;;;;;5021426;28;20039;-67
2023/10/19 12:33:11;;;;;;;11.85;2.45;;;;;;;;;;5021231;28;20514;-67
2023/10/19 12:35:57;;;;;;;13.87;3.10;;;;;;;;;;5018538;28;20076;-68
2023/10/19 12:38:23;;;;;;;11.27;2.72;;;;;;;;;;5006737;28;20278;-67
2023/10/19 12:40:54;;;;;;;14.38;3.30;;;;;;;;;;5018856;28;20028;-67
2023/10/19 12:43:24;;;;;;;13.88;3.25;;;;;;;;;;5002417;28;20037;-68
2023/10/19 12:45:53;;;;;;;12.90;3.08;;;;;;;;;;5002426;28;20045;-67
2023/10/19 12:48:20;;;;;;;12.48;2.85;;;;;;;;;;5015010;28;20052;-66
2023/10/19 12:50:47;;;;;;;12.30;2.85;;;;;;;;;;5022994;28;20037;-67
2023/10/19 12:53:13;;;;;;;14.63;2.85;;;;;;;;;;5022615;28;20032;-66
2023/10/19 12:55:43;;;;;;;13.52;2.67;;;;;;;;;;5005175;28;20118;-66
2023/10/19 12:58:09;;;;;;;14.43;2.67;;;;;;;;;;5019980;28;20029;-67
2023/10/19 13:00:36;;;;;;;14.20;3.13;;;;;;;;;;5021851;28;20590;-66
2023/10/19 13:03:05;;;;;;;12.85;2.85;;;;;;;;;;5023488;28;20345;-67
2023/10/19 13:05:38;;;;;;;16.30;3.63;;;;;;;;;;5001875;28;20331;-66
2023/10/19 13:08:08;;;;;;;10.98;2.45;;;;;;;;;;4999925;28;20052;-67
2023/10/19 13:10:37;;;;;;;13.43;2.90;;;;;;;;;;5004599;28;20414;-68
2023/10/19 13:13:06;;;;;;;13.63;2.72;;;;;;;;;;5024012;28;20813;-66
2023/10/19 13:15:34;;;;;;;12.07;2.60;;;;;;;;;;5021071;28;20560;-67
2023/10/19 13:18:01;;;;;;;12.77;2.67;;;;;;;;;;5005089;28;20037;-67
2023/10/19 13:20:33;;;;;;;15.50;3.00;;;;;;;;;;5018554;28;20164;-66
2023/10/19 13:22:59;;;;;;;13.23;2.65;;;;;;;;;;5019391;28;20029;-67
2023/10/19 13:25:38;;;;;;;12.65;2.47;;;;;;;;;;5017110;28;20134;-67
2023/10/19 13:28:08;;;;;;;13.40;2.90;;;;;;;;;;5021364;28;20029;-67
2023/10/19 13:30:41;;;;;;;12.48;3.00;;;;;;;;;;5023484;28;20020;-67
2023/10/19 13:33:09;;;;;;;17.13;3.15;;;;;;;;;;5023954;28;20132;-67
2023/10/19 13:35:36;;;;;;;14.35;3.13;;;;;;;;;;5022120;28;20320;-66
2023/10/19 13:38:04;;;;;;;12.30;2.53;;;;;;;;;;5018498;28;20668;-67
2023/10/19 13:40:30;;;;;;;15.02;2.78;;;;;;;;;;4995999;28;20033;-68
2023/10/19 13:42:57;;;;;;;14.55;3.33;;;;;;;;;;5000405;28;20040;-67
2023/10/19 13:45:23;;;;;;;13.00;2.65;;;;;;;;;;5017088;28;20024;-68
2023/10/19 13:47:49;;;;;;;15.65;2.95;;;;;;;;;;5020132;28;20144;-67
2023/10/19 13:50:16;;;;;;;17.70;3.30;;;;;;;;;;5001471;28;20513;-66
2023/10/19 13:52:42;;;;;;;14.57;3.33;;;;;;;;;;5025553;28;20036;-67
2023/10/19 13:55:12;;;;;;;14.25;3.00;;;;;;;;;;5007434;28;20043;-67
2023/10/19 13:57:38;;;;;;;15.73;3.53;;;;;;;;;;5022458;28;20431;-67
2023/10/19 14:00:07;;;;;;;12.93;3.13;;;;;;;;;;5022525;28;20720;-68
2023/10/19 14:02:34;;;;;;;12.77;2.70;;;;;;;;;;5020742;28;20775;-68
2023/10/19 14:05:00;;;;;;;14.65;3.28;;;;;;;;;;5020502;28;20264;-68
2023/10/19 14:07:26;;;;;;;13.90;2.63;;;;;;;;;;5022101;28;20024;-68
2023/10/19 14:09:52;;;;;;;13.32;3.15;;;;;;;;;;5006289;28;20090;-66
2023/10/19 14:12:18;;;;;;;17.27;3.30;;;;;;;;;;5020379;28;20031;-67
2023/10/19 14:14:45;;;;;;;14.88;3.00;;;;;;;;;;5022019;28;20033;-67
2023/10/19 14:17:12;;;;;;;14.25;2.97;;;;;;;;;;4993754;28;20420;-67
2023/10/19 14:19:44;;;;;;;12.35;2.90;;;;;;;;;;4999838;28;20036;-67
2023/10/19 14:22:10;;;;;;;13.30;2.95;;;;;;;;;;5013982;28;20037;-67
2023/10/19 14:24:36;;;;;;;18.63;3.80;;;;;;;;;;5020267;28;20044;-68
2023/10/19 14:27:04;;;;;;;14.88;2.78;;;;;;;;;;5017594;28;20030;-67
2023/10/19 14:29:30;;;;;;;18.50;3.10;;;;;;;;;;4999749;28;20622;-67
2023/10/19 14:31:56;;;;;;;16.30;3.40;;;;;;;;;;5002750;28;20083;-68
2023/10/19 14:34:22;;;;;;;14.40;3.55;;;;;;;;;;5018217;28;20506;-67
2023/10/19 14:36:48;;;;;;;16.10;3.65;;;;;;;;;;5021245;28;20128;-67
2023/10/19 14:39:16;;;;;;;15.93;3.72;;;;;;;;;;5020078;28;20136;-67
2023/10/19 14:41:42;;;;;;;17.27;3.63;;;;;;;;;;5021187;28;20562;-66
2023/10/19 14:44:09;;;;;;;21.42;3.40;;;;;;;;;;5021217;28;20211;-69
2023/10/19 14:46:36;;;;;;;16.27;3.88;;;;;;;;;;5016798;28;20014;-67
2023/10/19 14:49:02;;;;;;;15.52;3.78;;;;;;;;;;5021516;28;20370;-67
2023/10/19 14:51:28;;;;;;;23.70;4.13;;;;;;;;;;5018211;28;20981;-68
2023/10/19 14:53:54;;;;;;;17.20;4.22;;;;;;;;;;5020844;28;20060;-68
2023/10/19 14:56:21;;;;;;;19.50;3.95;;;;;;;;;;5016478;28;20023;-66
2023/10/19 14:58:47;;;;;;;20.85;4.22;;;;;;;;;;5004469;28;20075;-67
2023/10/19 15:01:16;;;;;;;18.80;4.50;;;;;;;;;;4999980;28;20033;-67
2023/10/19 15:03:45;;;;;;;30.80;5.22;;;;;;;;;;5021539;28;20040;-67
2023/10/19 15:06:14;;;;;;;23.30;4.47;;;;;;;;;;5017986;28;20025;-68